sensor_id;sensor_type;location;lat;lon;timestamp;pressure;altitude;pressure_sealevel;temperature;humidity
6034;BME280;3045;43.226;27.858;2023-03-19T00:01:59;34668.47;;;8.71;100.00
6034;BME280;3045;43.226;27.858;2023-03-19T00:04:26;34664.75;;;8.65;100.00
6034;BME280;3045;43.226;27.858;2023-03-19T00:06:54;34671.25;;;8.76;100.00
6034;BME280;3045;43.226;27.858;2023-03-19T00:09:21;34994.47;;;8.78;100.00
6034;BME280;3045;43.226;27.858;2023-03-19T00:11:48;38219.53;;;8.83;100.00
6034;BME280;3045;43.226;27.858;2023-03-19T00:14:15;41766.91;;;8.83;100.00
6034;BME280;3045;43.226;27.858;2023-03-19T00:16:42;44348.78;;;8.83;100.00
6034;BME280;3045;43.226;27.858;2023-03-19T00:19:09;43364.94;;;8.62;100.00
6034;BME280;3045;43.226;27.858;2023-03-19T00:21:36;44336.31;;;8.66;100.00
6034;BME280;3045;43.226;27.858;2023-03-19T00:24:05;38199.84;;;8.54;100.00
6034;BME280;3045;43.226;27.858;2023-03-19T00:26:33;38531.28;;;8.67;100.00
6034;BME280;3045;43.226;27.858;2023-03-19T00:29:01;39820.59;;;8.67;100.00
6034;BME280;3045;43.226;27.858;2023-03-19T00:31:28;40143.00;;;8.67;100.00
6034;BME280;3045;43.226;27.858;2023-03-19T00:33:56;43696.53;;;8.74;100.00
6034;BME280;3045;43.226;27.858;2023-03-19T00:36:24;43046.81;;;8.68;100.00
6034;BME280;3045;43.226;27.858;2023-03-19T00:38:51;38518.28;;;8.48;100.00
6034;BME280;3045;43.226;27.858;2023-03-19T00:41:20;38186.28;;;8.34;100.00
6034;BME280;3045;43.226;27.858;2023-03-19T00:43:51;33677.47;;;8.28;100.00
6034;BME280;3045;43.226;27.858;2023-03-19T00:46:18;35951.56;;;8.63;100.00
6034;BME280;3045;43.226;27.858;2023-03-19T00:48:45;40123.81;;;8.40;100.00
6034;BME280;3045;43.226;27.858;2023-03-19T00:51:12;40146.56;;;8.73;100.00
6034;BME280;3045;43.226;27.858;2023-03-19T00:53:40;46272.16;;;8.64;100.00
6034;BME280;3045;43.226;27.858;2023-03-19T00:56:08;46594.34;;;8.63;100.00
6034;BME280;3045;43.226;27.858;2023-03-19T00:58:36;42711.69;;;8.52;100.00
6034;BME280;3045;43.226;27.858;2023-03-19T01:01:05;40443.94;;;8.37;100.00
6034;BME280;3045;43.226;27.858;2023-03-19T01:03:33;39157.81;;;8.41;100.00
6034;BME280;3045;43.226;27.858;2023-03-19T01:06:00;40781.41;;;8.58;100.00
6034;BME280;3045;43.226;27.858;2023-03-19T01:08:28;42712.06;;;8.52;100.00
6034;BME280;3045;43.226;27.858;2023-03-19T01:10:55;42068.06;;;8.54;100.00
6034;BME280;3045;43.226;27.858;2023-03-19T01:13:22;43368.00;;;8.66;100.00
6034;BME280;3045;43.226;27.858;2023-03-19T01:15:51;41112.22;;;8.70;100.00
6034;BME280;3045;43.226;27.858;2023-03-19T01:18:18;44032.50;;;8.91;100.00
6034;BME280;3045;43.226;27.858;2023-03-19T01:20:45;49851.81;;;8.93;100.00
6034;BME280;3045;43.226;27.858;2023-03-19T01:23:12;55361.81;;;9.00;100.00
6034;BME280;3045;43.226;27.858;2023-03-19T01:25:39;60876.69;;;9.01;100.00
6034;BME280;3045;43.226;27.858;2023-03-19T01:28:06;59566.22;;;8.89;100.00
6034;BME280;3045;43.226;27.858;2023-03-19T01:30:33;57930.03;;;8.75;100.00
6034;BME280;3045;43.226;27.858;2023-03-19T01:33:01;60878.28;;;9.03;100.00
6034;BME280;3045;43.226;27.858;2023-03-19T01:35:28;63136.97;;;8.90;100.00
6034;BME280;3045;43.226;27.858;2023-03-19T01:37:55;59559.50;;;8.83;100.00
6034;BME280;3045;43.226;27.858;2023-03-19T01:40:21;58588.09;;;8.84;100.00
6034;BME280;3045;43.226;27.858;2023-03-19T01:42:56;57926.00;;;8.70;100.00
6034;BME280;3045;43.226;27.858;2023-03-19T01:45:35;60191.59;;;8.66;100.00
6034;BME280;3045;43.226;27.858;2023-03-19T01:48:04;60183.75;;;8.59;100.00
6034;BME280;3045;43.226;27.858;2023-03-19T01:50:38;61492.38;;;8.69;100.00
6034;BME280;3045;43.226;27.858;2023-03-19T01:53:06;58904.19;;;8.76;100.00
6034;BME280;3045;43.226;27.858;2023-03-19T01:55:34;59227.97;;;8.76;100.00
6034;BME280;3045;43.226;27.858;2023-03-19T01:58:01;60520.13;;;8.70;100.00
6034;BME280;3045;43.226;27.858;2023-03-19T02:00:29;59870.41;;;8.69;100.00
6034;BME280;3045;43.226;27.858;2023-03-19T02:02:59;56300.81;;;8.65;100.00
6034;BME280;3045;43.226;27.858;2023-03-19T02:05:28;53072.50;;;8.76;100.00
6034;BME280;3045;43.226;27.858;2023-03-19T02:08:00;54700.44;;;8.86;100.00
6034;BME280;3045;43.226;27.858;2023-03-19T02:10:29;58906.75;;;8.79;100.00
6034;BME280;3045;43.226;27.858;2023-03-19T02:12:56;64446.75;;;8.99;100.00
6034;BME280;3045;43.226;27.858;2023-03-19T02:15:23;67677.00;;;8.82;100.00
6034;BME280;3045;43.226;27.858;2023-03-19T02:17:50;68974.78;;;8.79;100.00
6034;BME280;3045;43.226;27.858;2023-03-19T02:20:24;61818.47;;;8.71;100.00
6034;BME280;3045;43.226;27.858;2023-03-19T02:22:59;57588.41;;;8.57;100.00
6034;BME280;3045;43.226;27.858;2023-03-19T02:25:36;60200.97;;;8.76;100.00
6034;BME280;3045;43.226;27.858;2023-03-19T02:28:07;57276.81;;;8.69;100.00
6034;BME280;3045;43.226;27.858;2023-03-19T02:30:35;56624.31;;;8.65;100.00
6034;BME280;3045;43.226;27.858;2023-03-19T02:33:03;56311.09;;;8.76;100.00
6034;BME280;3045;43.226;27.858;2023-03-19T02:35:32;59222.81;;;8.70;100.00
6034;BME280;3045;43.226;27.858;2023-03-19T02:38:00;57900.88;;;8.45;100.00
6034;BME280;3045;43.226;27.858;2023-03-19T02:40:33;49182.94;;;8.67;100.00
6034;BME280;3045;43.226;27.858;2023-03-19T02:43:01;49503.22;;;8.64;100.00
6034;BME280;3045;43.226;27.858;2023-03-19T02:45:30;49830.03;;;8.68;100.00
6034;BME280;3045;43.226;27.858;2023-03-19T02:47:57;51775.66;;;8.74;100.00
6034;BME280;3045;43.226;27.858;2023-03-19T02:50:25;52751.09;;;8.79;100.00
6034;BME280;3045;43.226;27.858;2023-03-19T02:52:52;55664.59;;;8.78;100.00
6034;BME280;3045;43.226;27.858;2023-03-19T02:55:18;54351.94;;;8.59;100.00
6034;BME280;3045;43.226;27.858;2023-03-19T02:57:46;51431.91;;;8.51;100.00
6034;BME280;3045;43.226;27.858;2023-03-19T03:00:14;51772.94;;;8.70;100.00
6034;BME280;3045;43.226;27.858;2023-03-19T03:02:44;48205.19;;;8.58;100.00
6034;BME280;3045;43.226;27.858;2023-03-19T03:05:12;50794.44;;;8.61;100.00
6034;BME280;3045;43.226;27.858;2023-03-19T03:07:39;56304.75;;;8.69;100.00
6034;BME280;3045;43.226;27.858;2023-03-19T03:10:08;52404.56;;;8.53;100.00
6034;BME280;3045;43.226;27.858;2023-03-19T03:12:35;51447.63;;;8.68;100.00
6034;BME280;3045;43.226;27.858;2023-03-19T03:15:04;50149.44;;;8.63;100.00
6034;BME280;3045;43.226;27.858;2023-03-19T03:17:31;48190.41;;;8.40;100.00
6034;BME280;3045;43.226;27.858;2023-03-19T03:19:59;45930.22;;;8.41;100.00
6034;BME280;3045;43.226;27.858;2023-03-19T03:22:26;48523.69;;;8.52;100.00
6034;BME280;3045;43.226;27.858;2023-03-19T03:24:53;50157.34;;;8.73;100.00
6034;BME280;3045;43.226;27.858;2023-03-19T03:27:20;50802.44;;;8.70;100.00
6034;BME280;3045;43.226;27.858;2023-03-19T03:29:47;51120.56;;;8.64;100.00
6034;BME280;3045;43.226;27.858;2023-03-19T03:32:14;51118.75;;;8.62;100.00
6034;BME280;3045;43.226;27.858;2023-03-19T03:34:41;52405.94;;;8.55;100.00
6034;BME280;3045;43.226;27.858;2023-03-19T03:37:11;51119.22;;;8.63;100.00
6034;BME280;3045;43.226;27.858;2023-03-19T03:39:38;54015.03;;;8.45;100.00
6034;BME280;3045;43.226;27.858;2023-03-19T03:42:07;52396.34;;;8.44;100.00
6034;BME280;3045;43.226;27.858;2023-03-19T03:44:34;52396.81;;;8.45;100.00
6034;BME280;3045;43.226;27.858;2023-03-19T03:47:01;52403.66;;;8.52;100.00
6034;BME280;3045;43.226;27.858;2023-03-19T03:49:29;54986.09;;;8.45;100.00
6034;BME280;3045;43.226;27.858;2023-03-19T03:51:56;54672.84;;;8.56;100.00
6034;BME280;3045;43.226;27.858;2023-03-19T03:54:24;58544.91;;;8.41;100.00
6034;BME280;3045;43.226;27.858;2023-03-19T03:56:53;61480.13;;;8.58;100.00
6034;BME280;3045;43.226;27.858;2023-03-19T03:59:20;60494.97;;;8.46;100.00
6034;BME280;3045;43.226;27.858;2023-03-19T04:01:47;56945.81;;;8.62;100.00
6034;BME280;3045;43.226;27.858;2023-03-19T04:04:14;55974.44;;;8.63;100.00
6034;BME280;3045;43.226;27.858;2023-03-19T04:06:41;58898.56;;;8.70;100.00
6034;BME280;3045;43.226;27.858;2023-03-19T04:09:07;62463.22;;;8.67;100.00
6034;BME280;3045;43.226;27.858;2023-03-19T04:11:36;66675.28;;;8.58;100.00
6034;BME280;3045;43.226;27.858;2023-03-19T04:14:03;71229.50;;;8.60;100.00
6034;BME280;3045;43.226;27.858;2023-03-19T04:16:31;72214.41;;;8.67;100.00
6034;BME280;3045;43.226;27.858;2023-03-19T04:18:58;73840.94;;;8.66;100.00
6034;BME280;3045;43.226;27.858;2023-03-19T04:21:25;72203.84;;;8.59;100.00
6034;BME280;3045;43.226;27.858;2023-03-19T04:23:54;69285.09;;;8.66;100.00
6034;BME280;3045;43.226;27.858;2023-03-19T04:26:21;59528.03;;;8.52;100.00
6034;BME280;3045;43.226;27.858;2023-03-19T04:28:49;59531.63;;;8.55;100.00
6034;BME280;3045;43.226;27.858;2023-03-19T04:31:16;62455.66;;;8.60;100.00
6034;BME280;3045;43.226;27.858;2023-03-19T04:33:42;63755.09;;;8.61;100.00
6034;BME280;3045;43.226;27.858;2023-03-19T04:36:10;65376.44;;;8.59;100.00
6034;BME280;3045;43.226;27.858;2023-03-19T04:38:37;67342.59;;;8.74;100.00
6034;BME280;3045;43.226;27.858;2023-03-19T04:41:03;70587.97;;;8.68;100.00
6034;BME280;3045;43.226;27.858;2023-03-19T04:43:30;70920.06;;;8.74;100.00
6034;BME280;3045;43.226;27.858;2023-03-19T04:45:59;70271.75;;;8.76;100.00
6034;BME280;3045;43.226;27.858;2023-03-19T04:48:26;66030.06;;;8.62;100.00
6034;BME280;3045;43.226;27.858;2023-03-19T04:50:53;66368.16;;;8.74;100.00
6034;BME280;3045;43.226;27.858;2023-03-19T04:53:21;69944.00;;;8.74;100.00
6034;BME280;3045;43.226;27.858;2023-03-19T04:55:48;72209.44;;;8.63;100.00
6034;BME280;3045;43.226;27.858;2023-03-19T04:58:15;63427.16;;;8.58;100.00
6034;BME280;3045;43.226;27.858;2023-03-19T05:00:42;59866.25;;;8.65;100.00
6034;BME280;3045;43.226;27.858;2023-03-19T05:03:12;62785.09;;;8.64;100.00
6034;BME280;3045;43.226;27.858;2023-03-19T05:05:40;62143.00;;;8.71;100.00
6034;BME280;3045;43.226;27.858;2023-03-19T05:08:08;62790.53;;;8.69;100.00
6034;BME280;3045;43.226;27.858;2023-03-19T05:10:35;64095.81;;;8.76;100.00
6034;BME280;3045;43.226;27.858;2023-03-19T05:13:03;66676.44;;;8.59;100.00
6034;BME280;3045;43.226;27.858;2023-03-19T05:15:29;67647.22;;;8.56;100.00
6034;BME280;3045;43.226;27.858;2023-03-19T05:17:56;66046.03;;;8.77;100.00
6034;BME280;3045;43.226;27.858;2023-03-19T05:20:26;70277.81;;;8.81;100.00
6034;BME280;3045;43.226;27.858;2023-03-19T05:22:53;73846.03;;;8.70;100.00
6034;BME280;3045;43.226;27.858;2023-03-19T05:25:19;75822.03;;;8.87;100.00
6034;BME280;3045;43.226;27.858;2023-03-19T05:27:46;78427.13;;;8.85;100.00
6034;BME280;3045;43.226;27.858;2023-03-19T05:32:43;90188.38;;;8.84;100.00
6034;BME280;3045;43.226;27.858;2023-03-19T05:35:11;87583.91;;;8.93;100.00
6034;BME280;3045;43.226;27.858;2023-03-19T05:37:39;89561.50;;;9.02;100.00
6034;BME280;3045;43.226;27.858;2023-03-19T05:40:08;90185.31;;;8.82;100.00
6034;BME280;3045;43.226;27.858;2023-03-19T05:42:35;88548.59;;;8.82;100.00
6034;BME280;3045;43.226;27.858;2023-03-19T05:45:02;90872.56;;;9.03;100.00
6034;BME280;3045;43.226;27.858;2023-03-19T05:47:30;98394.31;;;8.93;100.00
6034;BME280;3045;43.226;27.858;2023-03-19T05:49:56;101009.75;;;8.87;100.00
6034;BME280;3045;43.226;27.858;2023-03-19T05:52:23;106277.59;;;8.93;100.00
6034;BME280;3045;43.226;27.858;2023-03-19T05:54:52;114529.81;;;9.04;100.00
6034;BME280;3045;43.226;27.858;2023-03-19T05:57:19;117505.19;;;9.07;100.00
6034;BME280;3045;43.226;27.858;2023-03-19T05:59:45;118174.28;;;9.12;100.00
6034;BME280;3045;43.226;27.858;2023-03-19T06:02:12;126160.53;;;9.38;100.00
6034;BME280;3045;43.226;27.858;2023-03-19T06:04:39;131470.09;;;9.38;100.00
6034;BME280;3045;43.226;27.858;2023-03-19T06:07:06;146362.88;;;9.55;100.00
6034;BME280;3045;43.226;27.858;2023-03-19T06:09:33;148353.41;;;9.19;100.00
6034;BME280;3045;43.226;27.858;2023-03-19T06:12:01;148390.00;;;9.34;100.00
6034;BME280;3045;43.226;27.858;2023-03-19T06:14:29;148384.97;;;9.32;100.00
6034;BME280;3045;43.226;27.858;2023-03-19T06:16:56;148401.34;;;9.38;100.00
6034;BME280;3045;43.226;27.858;2023-03-19T06:19:23;148415.25;;;9.44;100.00
6034;BME280;3045;43.226;27.858;2023-03-19T06:21:50;148414.00;;;9.43;100.00
6034;BME280;3045;43.226;27.858;2023-03-19T06:24:17;148458.22;;;9.61;100.00
6034;BME280;3045;43.226;27.858;2023-03-19T06:26:44;148441.81;;;9.54;100.00
6034;BME280;3045;43.226;27.858;2023-03-19T06:29:13;148422.81;;;9.47;100.00
6034;BME280;3045;43.226;27.858;2023-03-19T06:31:40;148411.47;;;9.42;100.00
6034;BME280;3045;43.226;27.858;2023-03-19T06:34:07;148438.00;;;9.53;100.00
6034;BME280;3045;43.226;27.858;2023-03-19T06:36:33;148431.72;;;9.50;100.00
6034;BME280;3045;43.226;27.858;2023-03-19T06:39:00;148403.91;;;9.39;100.00
6034;BME280;3045;43.226;27.858;2023-03-19T06:41:27;148412.72;;;9.43;100.00
6034;BME280;3045;43.226;27.858;2023-03-19T06:43:54;148416.53;;;9.44;100.00
6034;BME280;3045;43.226;27.858;2023-03-19T06:46:22;148408.97;;;9.41;100.00
6034;BME280;3045;43.226;27.858;2023-03-19T06:48:49;148468.31;;;9.65;100.00
6034;BME280;3045;43.226;27.858;2023-03-19T06:51:16;148474.59;;;9.68;100.00
6034;BME280;3045;43.226;27.858;2023-03-19T06:53:43;148470.84;;;9.66;100.00
6034;BME280;3045;43.226;27.858;2023-03-19T06:56:10;148396.34;;;9.36;100.00
6034;BME280;3045;43.226;27.858;2023-03-19T06:58:37;148401.34;;;9.38;100.00
6034;BME280;3045;43.226;27.858;2023-03-19T07:01:04;148432.94;;;9.51;100.00
6034;BME280;3045;43.226;27.858;2023-03-19T07:03:32;148406.44;;;9.40;100.00
6034;BME280;3045;43.226;27.858;2023-03-19T07:05:59;148369.78;;;9.26;100.00
6034;BME280;3045;43.226;27.858;2023-03-19T07:08:26;148358.44;;;9.21;100.00
6034;BME280;3045;43.226;27.858;2023-03-19T07:10:54;148462.03;;;9.62;100.00
6034;BME280;3045;43.226;27.858;2023-03-19T07:13:21;148434.19;;;9.51;100.00
6034;BME280;3045;43.226;27.858;2023-03-19T07:15:48;148411.47;;;9.42;100.00
6034;BME280;3045;43.226;27.858;2023-03-19T07:18:14;148426.63;;;9.48;100.00
6034;BME280;3045;43.226;27.858;2023-03-19T07:20:43;148427.91;;;9.49;100.00
6034;BME280;3045;43.226;27.858;2023-03-19T07:23:10;148446.84;;;9.56;100.00
6034;BME280;3045;43.226;27.858;2023-03-19T07:25:37;148474.59;;;9.68;100.00
6034;BME280;3045;43.226;27.858;2023-03-19T07:28:04;148512.53;;;9.83;100.00
6034;BME280;3045;43.226;27.858;2023-03-19T07:30:30;148498.63;;;9.77;100.00
6034;BME280;3045;43.226;27.858;2023-03-19T07:32:57;148523.91;;;9.87;100.00
6034;BME280;3045;43.226;27.858;2023-03-19T07:35:24;148506.19;;;9.80;100.00
6034;BME280;3045;43.226;27.858;2023-03-19T07:37:52;148554.22;;;9.99;100.00
6034;BME280;3045;43.226;27.858;2023-03-19T07:40:19;148474.59;;;9.68;100.00
6034;BME280;3045;43.226;27.858;2023-03-19T07:42:46;148444.31;;;9.55;100.00
6034;BME280;3045;43.226;27.858;2023-03-19T07:45:13;148451.91;;;9.58;100.00
6034;BME280;3045;43.226;27.858;2023-03-19T07:47:40;148472.13;;;9.67;100.00
6034;BME280;3045;43.226;27.858;2023-03-19T07:50:08;148496.09;;;9.76;100.00
6034;BME280;3045;43.226;27.858;2023-03-19T07:52:35;148546.66;;;9.96;100.00
6034;BME280;3045;43.226;27.858;2023-03-19T07:55:04;148401.34;;;9.38;100.00
6034;BME280;3045;43.226;27.858;2023-03-19T07:57:31;148403.91;;;9.39;100.00
6034;BME280;3045;43.226;27.858;2023-03-19T07:59:58;148328.13;;;9.09;100.00
6034;BME280;3045;43.226;27.858;2023-03-19T08:02:25;148280.19;;;8.90;100.00
6034;BME280;3045;43.226;27.858;2023-03-19T08:04:52;148290.28;;;8.94;100.00
6034;BME280;3045;43.226;27.858;2023-03-19T08:07:20;148344.56;;;9.15;100.00
6034;BME280;3045;43.226;27.858;2023-03-19T08:09:47;148373.59;;;9.27;100.00
6034;BME280;3045;43.226;27.858;2023-03-19T08:12:15;148335.75;;;9.12;100.00
6034;BME280;3045;43.226;27.858;2023-03-19T08:14:42;148357.22;;;9.21;100.00
6034;BME280;3045;43.226;27.858;2023-03-19T08:17:09;148424.09;;;9.47;100.00
6034;BME280;3045;43.226;27.858;2023-03-19T08:19:36;148398.88;;;9.37;100.00
6034;BME280;3045;43.226;27.858;2023-03-19T08:22:03;148438.00;;;9.53;100.00
6034;BME280;3045;43.226;27.858;2023-03-19T08:24:30;148451.91;;;9.58;100.00
6034;BME280;3045;43.226;27.858;2023-03-19T08:26:57;148515.06;;;9.84;100.00
6034;BME280;3045;43.226;27.858;2023-03-19T08:29:25;148512.53;;;9.83;100.00
6034;BME280;3045;43.226;27.858;2023-03-19T08:31:52;148580.72;;;10.10;100.00
6034;BME280;3045;43.226;27.858;2023-03-19T08:34:20;148576.97;;;10.08;100.00
6034;BME280;3045;43.226;27.858;2023-03-19T08:36:50;148574.44;;;10.07;100.00
6034;BME280;3045;43.226;27.858;2023-03-19T08:39:17;148568.13;;;10.05;100.00
6034;BME280;3045;43.226;27.858;2023-03-19T08:41:44;148662.94;;;10.43;100.00
6034;BME280;3045;43.226;27.858;2023-03-19T08:44:11;148766.59;;;10.84;100.00
6034;BME280;3045;43.226;27.858;2023-03-19T08:46:40;148824.75;;;11.08;100.00
6034;BME280;3045;43.226;27.858;2023-03-19T08:49:07;148957.56;;;11.61;100.00
6034;BME280;3045;43.226;27.858;2023-03-19T08:51:34;149165.13;;;12.44;100.00
6034;BME280;3045;43.226;27.858;2023-03-19T08:54:01;149187.94;;;12.53;100.00
6034;BME280;3045;43.226;27.858;2023-03-19T08:56:28;149225.94;;;12.68;100.00
6034;BME280;3045;43.226;27.858;2023-03-19T08:58:55;149199.31;;;12.57;100.00
6034;BME280;3045;43.226;27.858;2023-03-19T09:01:22;149237.34;;;12.72;100.00
6034;BME280;3045;43.226;27.858;2023-03-19T09:03:50;149275.31;;;12.88;100.00
6034;BME280;3045;43.226;27.858;2023-03-19T09:06:17;149301.91;;;12.98;100.00
6034;BME280;3045;43.226;27.858;2023-03-19T09:08:44;149293.03;;;12.95;100.00
6034;BME280;3045;43.226;27.858;2023-03-19T09:11:11;149317.09;;;13.04;100.00
6034;BME280;3045;43.226;27.858;2023-03-19T09:13:38;149274.03;;;12.87;100.00
6034;BME280;3045;43.226;27.858;2023-03-19T09:16:06;149125.91;;;12.28;100.00
6034;BME280;3045;43.226;27.858;2023-03-19T09:18:33;149052.50;;;11.99;100.00
6034;BME280;3045;43.226;27.858;2023-03-19T09:21:02;149051.25;;;11.98;100.00
6034;BME280;3045;43.226;27.858;2023-03-19T09:23:29;149087.97;;;12.13;100.00
6034;BME280;3045;43.226;27.858;2023-03-19T09:25:56;149119.59;;;12.25;100.00
6034;BME280;3045;43.226;27.858;2023-03-19T09:28:23;149111.97;;;12.22;100.00
6034;BME280;3045;43.226;27.858;2023-03-19T09:30:50;149104.41;;;12.19;100.00
6034;BME280;3045;43.226;27.858;2023-03-19T09:33:19;149171.50;;;12.46;100.00
6034;BME280;3045;43.226;27.858;2023-03-19T09:35:51;149215.81;;;12.64;100.00
6034;BME280;3045;43.226;27.858;2023-03-19T09:38:20;149208.19;;;12.61;100.00
6034;BME280;3045;43.226;27.858;2023-03-19T09:40:53;149269.00;;;12.85;100.00
6034;BME280;3045;43.226;27.858;2023-03-19T09:46:21;149153.75;;;12.39;100.00
6034;BME280;3045;43.226;27.858;2023-03-19T09:48:53;149219.59;;;12.65;100.00
6034;BME280;3045;43.226;27.858;2023-03-19T09:51:27;149219.59;;;12.65;100.00
6034;BME280;3045;43.226;27.858;2023-03-19T09:53:59;149175.25;;;12.48;100.00
6034;BME280;3045;43.226;27.858;2023-03-19T09:56:27;149304.41;;;12.99;100.00
6034;BME280;3045;43.226;27.858;2023-03-19T09:58:54;149294.28;;;12.95;100.00
6034;BME280;3045;43.226;27.858;2023-03-19T10:01:24;149342.50;;;13.14;100.00
6034;BME280;3045;43.226;27.858;2023-03-19T10:04:11;149385.56;;;13.32;100.00
6034;BME280;3045;43.226;27.858;2023-03-19T10:06:43;149391.88;;;13.34;100.00
6034;BME280;3045;43.226;27.858;2023-03-19T10:09:33;149388.06;;;13.33;100.00
6034;BME280;3045;43.226;27.858;2023-03-19T10:12:18;149345.00;;;13.15;100.00
6034;BME280;3045;43.226;27.858;2023-03-19T10:15:03;149325.94;;;13.08;100.00
6034;BME280;3045;43.226;27.858;2023-03-19T10:17:38;149338.69;;;13.13;100.00
6034;BME280;3045;43.226;27.858;2023-03-19T10:20:08;149338.69;;;13.13;100.00
6034;BME280;3045;43.226;27.858;2023-03-19T10:22:43;149342.50;;;13.14;100.00
6034;BME280;3045;43.226;27.858;2023-03-19T10:25:19;149366.53;;;13.24;100.00
6034;BME280;3045;43.226;27.858;2023-03-19T10:27:52;149345.00;;;13.15;100.00
6034;BME280;3045;43.226;27.858;2023-03-19T10:30:20;149320.91;;;13.06;100.00
6034;BME280;3045;43.226;27.858;2023-03-19T10:32:52;149315.81;;;13.04;100.00
6034;BME280;3045;43.226;27.858;2023-03-19T10:35:22;149369.06;;;13.25;100.00
6034;BME280;3045;43.226;27.858;2023-03-19T10:37:50;149270.25;;;12.86;100.00
6034;BME280;3045;43.226;27.858;2023-03-19T10:40:23;149347.53;;;13.16;100.00
6034;BME280;3045;43.226;27.858;2023-03-19T10:43:05;149350.06;;;13.17;100.00
6034;BME280;3045;43.226;27.858;2023-03-19T10:45:34;149366.53;;;13.24;100.00
6034;BME280;3045;43.226;27.858;2023-03-19T10:48:02;149377.94;;;13.28;100.00
6034;BME280;3045;43.226;27.858;2023-03-19T10:50:33;149419.72;;;13.45;100.00
6034;BME280;3045;43.226;27.858;2023-03-19T10:53:06;149352.63;;;13.18;100.00
6034;BME280;3045;43.226;27.858;2023-03-19T10:55:34;149304.41;;;12.99;100.00
6034;BME280;3045;43.226;27.858;2023-03-19T10:58:04;149303.16;;;12.99;100.00
6034;BME280;3045;43.226;27.858;2023-03-19T11:00:33;149313.28;;;13.03;100.00
6034;BME280;3045;43.226;27.858;2023-03-19T11:03:01;149317.09;;;13.04;100.00
6034;BME280;3045;43.226;27.858;2023-03-19T11:05:31;149281.63;;;12.90;100.00
6034;BME280;3045;43.226;27.858;2023-03-19T11:08:01;149293.03;;;12.95;100.00
6034;BME280;3045;43.226;27.858;2023-03-19T11:10:30;149274.03;;;12.87;100.00
6034;BME280;3045;43.226;27.858;2023-03-19T11:13:04;149172.75;;;12.47;100.00
6034;BME280;3045;43.226;27.858;2023-03-19T11:15:38;149152.50;;;12.39;100.00
6034;BME280;3045;43.226;27.858;2023-03-19T11:18:07;149213.25;;;12.63;100.00
6034;BME280;3045;43.226;27.858;2023-03-19T11:20:36;149258.88;;;12.81;100.00
6034;BME280;3045;43.226;27.858;2023-03-19T11:23:10;149301.91;;;12.98;100.00
6034;BME280;3045;43.226;27.858;2023-03-19T11:25:39;149175.25;;;12.48;100.00
6034;BME280;3045;43.226;27.858;2023-03-19T11:28:10;149132.25;;;12.30;100.00
6034;BME280;3045;43.226;27.858;2023-03-19T11:30:45;149187.94;;;12.53;100.00
6034;BME280;3045;43.226;27.858;2023-03-19T11:36:22;149299.38;;;12.97;100.00
6034;BME280;3045;43.226;27.858;2023-03-19T11:39:11;149158.81;;;12.41;100.00
6034;BME280;3045;43.226;27.858;2023-03-19T11:41:52;149261.34;;;12.82;100.00
6034;BME280;3045;43.226;27.858;2023-03-19T11:44:29;149271.50;;;12.86;100.00
6034;BME280;3045;43.226;27.858;2023-03-19T11:47:06;149372.88;;;13.26;100.00
6034;BME280;3045;43.226;27.858;2023-03-19T11:49:49;149393.16;;;13.35;100.00
6034;BME280;3045;43.226;27.858;2023-03-19T11:52:24;149277.84;;;12.89;100.00
6034;BME280;3045;43.226;27.858;2023-03-19T11:55:03;149294.28;;;12.95;100.00
6034;BME280;3045;43.226;27.858;2023-03-19T11:57:54;149220.84;;;12.66;100.00
6034;BME280;3045;43.226;27.858;2023-03-19T12:00:29;149177.81;;;12.49;100.00
6034;BME280;3045;43.226;27.858;2023-03-19T12:03:26;149181.63;;;12.50;100.00
6034;BME280;3045;43.226;27.858;2023-03-19T12:06:01;149170.22;;;12.46;100.00
6034;BME280;3045;43.226;27.858;2023-03-19T12:08:38;149225.94;;;12.68;100.00
6034;BME280;3045;43.226;27.858;2023-03-19T12:11:16;149098.09;;;12.17;100.00
6034;BME280;3045;43.226;27.858;2023-03-19T12:13:58;149138.56;;;12.33;100.00
6034;BME280;3045;43.226;27.858;2023-03-19T12:16:39;149147.44;;;12.36;100.00
6034;BME280;3045;43.226;27.858;2023-03-19T12:19:26;149255.06;;;12.79;100.00
6034;BME280;3045;43.226;27.858;2023-03-19T12:22:08;149290.53;;;12.94;100.00
6034;BME280;3045;43.226;27.858;2023-03-19T12:24:54;149111.97;;;12.22;100.00
6034;BME280;3045;43.226;27.858;2023-03-19T12:27:30;149174.03;;;12.47;100.00
6034;BME280;3045;43.226;27.858;2023-03-19T12:30:01;149182.88;;;12.51;100.00
6034;BME280;3045;43.226;27.858;2023-03-19T12:32:49;149127.19;;;12.28;100.00
6034;BME280;3045;43.226;27.858;2023-03-19T12:35:24;149137.31;;;12.32;100.00
6034;BME280;3045;43.226;27.858;2023-03-19T12:37:58;149106.94;;;12.20;100.00
6034;BME280;3045;43.226;27.858;2023-03-19T12:40:28;149071.47;;;12.06;100.00
6034;BME280;3045;43.226;27.858;2023-03-19T12:43:01;149147.44;;;12.36;100.00
6034;BME280;3045;43.226;27.858;2023-03-19T12:45:31;149152.50;;;12.39;100.00
6034;BME280;3045;43.226;27.858;2023-03-19T12:48:06;149218.31;;;12.65;100.00
6034;BME280;3045;43.226;27.858;2023-03-19T12:50:37;149243.66;;;12.75;100.00
6034;BME280;3045;43.226;27.858;2023-03-19T12:53:10;149258.88;;;12.81;100.00
6034;BME280;3045;43.226;27.858;2023-03-19T12:55:44;149317.09;;;13.04;100.00
6034;BME280;3045;43.226;27.858;2023-03-19T12:58:19;149322.19;;;13.06;100.00
6034;BME280;3045;43.226;27.858;2023-03-19T13:00:51;149379.19;;;13.29;100.00
6034;BME280;3045;43.226;27.858;2023-03-19T13:03:26;149388.06;;;13.33;100.00
6034;BME280;3045;43.226;27.858;2023-03-19T13:05:59;149332.38;;;13.10;100.00
6034;BME280;3045;43.226;27.858;2023-03-19T13:08:32;149450.19;;;13.57;100.00
6034;BME280;3045;43.226;27.858;2023-03-19T13:11:04;149455.22;;;13.59;100.00
6034;BME280;3045;43.226;27.858;2023-03-19T13:13:39;149481.84;;;13.70;100.00
6034;BME280;3045;43.226;27.858;2023-03-19T13:16:27;149474.22;;;13.67;100.00
6034;BME280;3045;43.226;27.858;2023-03-19T13:19:03;149484.34;;;13.71;100.00
6034;BME280;3045;43.226;27.858;2023-03-19T13:21:36;149422.28;;;13.46;100.00